Time;durP1;ratioP1;P1;durP2;ratioP2;P2;SDS_P1;SDS_P2;PMS_P1;PMS_P2;Temp;Humidity;BMP_temperature;BMP_pressure;BME280_temperature;BME280_humidity;BME280_pressure;Samples;Min_cycle;Max_cycle;Signal;HPM_P1;HPM_P2
2024/04/18 00:01:54;;;;;;;0.10;0.10;;;;;;;4.18;84.09;100694.72;6476782;22;19994;-79
2024/04/18 00:04:23;;;;;;;0.00;0.00;;;;;;;4.16;84.13;100691.38;6431638;22;19998;-77
2024/04/18 00:07:03;;;;;;;;;;;;;;;;;;;;;
2024/04/18 00:09:39;;;;;;;0.00;0.00;;;;;;;3.83;84.31;100654.50;6475353;22;19998;-77
2024/04/18 00:12:25;;;;;;;0.00;0.00;;;;;;;3.82;84.32;100663.66;6431976;22;20045;-79
2024/04/18 00:14:54;;;;;;;0.10;0.10;;;;;;;3.91;84.85;100694.84;6398387;22;20006;-78
2024/04/18 00:17:19;;;;;;;0.00;0.00;;;;;;;3.80;84.80;100692.81;6432470;22;19990;-77
2024/04/18 00:19:45;;;;;;;0.00;0.00;;;;;;;3.90;85.20;100709.44;6391941;22;20030;-80
2024/04/18 00:22:10;;;;;;;0.00;0.00;;;;;;;3.65;85.72;100664.16;6433207;22;20014;-77
2024/04/18 00:24:38;;;;;;;0.10;0.10;;;;;;;3.65;85.86;100658.75;6430942;22;20020;-78
2024/04/18 00:27:06;;;;;;;0.00;0.00;;;;;;;3.81;86.28;100681.78;6435148;22;19994;-77
2024/04/18 00:29:39;;;;;;;0.00;0.00;;;;;;;4.07;86.59;100719.75;6475352;22;20049;-78
2024/04/18 00:32:05;;;;;;;0.00;0.00;;;;;;;3.91;86.46;100683.19;6434245;22;20356;-79
2024/04/18 00:34:40;;;;;;;0.10;0.10;;;;;;;4.04;87.06;100709.38;6393665;22;20072;-77
2024/04/18 00:37:09;;;;;;;0.00;0.00;;;;;;;3.95;87.16;100696.06;6391065;22;20002;-78
2024/04/18 00:42:21;;;;;;;0.00;0.00;;;;;;;4.08;87.26;100716.81;6421933;22;20009;-77
2024/04/18 00:45:12;;;;;;;0.00;0.00;;;;;;;3.88;87.27;100694.44;6432068;22;19994;-79
2024/04/18 00:47:42;;;;;;;0.00;0.00;;;;;;;3.73;87.30;100675.78;6432503;22;20436;-78
2024/04/18 00:50:10;;;;;;;0.00;0.00;;;;;;;3.64;87.41;100678.72;6391627;22;19998;-80
2024/04/18 00:52:35;;;;;;;0.00;0.00;;;;;;;3.59;87.43;100685.81;6432541;22;20299;-79
2024/04/18 00:55:10;;;;;;;0.00;0.00;;;;;;;3.55;87.58;100695.38;6432872;22;20002;-77
2024/04/18 00:57:40;;;;;;;0.00;0.00;;;;;;;3.75;87.72;100738.59;6430909;22;20002;-78
2024/04/18 01:00:50;;;;;;;0.00;0.00;;;;;;;3.70;87.65;100736.53;6431840;22;20868;-75
2024/04/18 01:06:57;;;;;;;0.00;0.00;;;;;;;3.27;88.03;100672.19;6275332;22;20404;-75
2024/04/18 01:09:33;;;;;;;;;;;;;;;;;;;;;
2024/04/18 01:12:07;;;;;;;0.00;0.00;;;;;;;3.24;88.47;100681.56;6479315;22;20001;-75
2024/04/18 01:14:53;;;;;;;0.10;0.10;;;;;;;3.35;88.32;100711.69;6475938;22;20072;-76
2024/04/18 01:17:24;;;;;;;0.00;0.00;;;;;;;3.20;88.48;100688.41;6429706;22;20409;-75
2024/04/18 01:19:50;;;;;;;0.00;0.00;;;;;;;3.49;88.91;100743.06;6433402;22;20002;-75
2024/04/18 01:22:21;;;;;;;0.00;0.00;;;;;;;3.40;88.96;100725.38;6430022;22;19997;-75
2024/04/18 01:24:49;;;;;;;0.10;0.10;;;;;;;3.30;89.20;100710.44;6429680;22;20009;-75
2024/04/18 01:27:15;;;;;;;0.00;0.00;;;;;;;3.40;89.15;100730.78;6431812;22;20009;-75
2024/04/18 01:30:06;;;;;;;0.00;0.00;;;;;;;3.06;89.14;100684.06;6429777;22;19994;-77
2024/04/18 01:32:50;;;;;;;;;;;;;;;;;;;;;
2024/04/18 01:35:19;;;;;;;0.00;0.00;;;;;;;3.12;89.25;100734.56;6475887;22;20016;-75
2024/04/18 01:37:55;;;;;;;0.10;0.10;;;;;;;3.10;89.77;100725.84;6473043;22;20300;-74
2024/04/18 01:40:35;;;;;;;0.00;0.00;;;;;;;2.87;90.09;100689.28;6473168;22;20014;-77
2024/04/18 01:43:01;;;;;;;0.03;0.03;;;;;;;2.98;90.08;100722.97;6470207;22;20005;-76
2024/04/18 01:45:39;;;;;;;0.00;0.00;;;;;;;2.94;90.04;100737.91;6427764;22;20002;-75
2024/04/18 01:48:05;;;;;;;0.00;0.00;;;;;;;3.01;90.05;100743.31;6430423;22;20109;-77
2024/04/18 01:50:33;;;;;;;0.00;0.00;;;;;;;3.04;90.21;100748.28;6348208;22;19994;-76
2024/04/18 01:53:33;;;;;;;;;;;;;;;;;;;;;
2024/04/18 01:55:53;;;;;;;0.00;0.00;;;;;;;3.00;90.22;100744.38;6464834;22;20004;-76
2024/04/18 01:58:22;;;;;;;0.03;0.03;;;;;;;2.82;90.33;100726.91;6473735;22;20097;-76
2024/04/18 02:00:47;;;;;;;0.00;0.00;;;;;;;2.87;90.67;100737.91;6430914;22;19998;-78
2024/04/18 02:03:13;;;;;;;0.00;0.00;;;;;;;2.85;90.54;100740.00;6391346;22;19997;-77
2024/04/18 02:06:02;;;;;;;0.10;0.10;;;;;;;2.81;91.10;100744.13;6348692;22;20392;-78
2024/04/18 02:11:59;;;;;;;0.00;0.00;;;;;;;2.55;91.01;100728.75;6477700;22;20069;-77
2024/04/18 02:14:27;;;;;;;0.00;0.00;;;;;;;2.72;91.12;100777.78;6437019;22;20086;-78
2024/04/18 02:16:57;;;;;;;0.00;0.00;;;;;;;2.58;91.43;100766.94;6435212;22;20005;-78
2024/04/18 02:22:18;;;;;;;0.00;0.00;;;;;;;2.31;91.79;100749.03;6456458;22;20010;-76
2024/04/18 02:25:08;;;;;;;0.10;0.10;;;;;;;2.64;92.01;100804.97;6476330;22;20068;-75
2024/04/18 02:28:06;;;;;;;0.00;0.00;;;;;;;2.61;92.18;100801.66;6427057;22;20128;-75
2024/04/18 02:31:04;;;;;;;0.00;0.00;;;;;;;2.86;91.96;100811.91;6389403;22;20009;-75
2024/04/18 02:36:29;;;;;;;0.00;0.00;;;;;;;3.56;90.36;100810.63;6459013;22;20485;-76
2024/04/18 02:39:22;;;;;;;;;;;;;;;;;;;;;
2024/04/18 02:42:11;;;;;;;0.00;0.00;;;;;;;4.04;88.73;100799.50;6472126;22;19998;-75
2024/04/18 02:44:36;;;;;;;0.10;0.10;;;;;;;4.16;88.58;100799.66;6472850;22;20008;-76
2024/04/18 02:47:06;;;;;;;0.00;0.00;;;;;;;4.12;88.03;100774.09;6429134;22;20006;-75
2024/04/18 02:49:33;;;;;;;0.00;0.00;;;;;;;4.08;87.82;100764.72;6388573;22;20013;-77
2024/04/18 02:52:54;;;;;;;0.00;0.00;;;;;;;4.07;88.00;100769.28;6475840;22;20073;-77
2024/04/18 02:55:19;;;;;;;0.00;0.00;;;;;;;4.05;88.23;100759.75;6433400;22;20234;-78
2024/04/18 02:57:48;;;;;;;0.00;0.00;;;;;;;4.12;88.33;100776.78;6434051;22;19990;-80
2024/04/18 03:00:42;;;;;;;0.00;0.00;;;;;;;4.46;88.22;100826.19;6433798;22;19998;-78
2024/04/18 03:03:10;;;;;;;0.10;0.10;;;;;;;4.36;88.16;100813.13;6422903;22;20008;-78
2024/04/18 03:05:36;;;;;;;0.00;0.00;;;;;;;4.41;88.05;100818.72;6430829;22;20008;-74
2024/04/18 03:08:01;;;;;;;0.00;0.00;;;;;;;4.55;88.12;100830.31;6432191;22;19994;-75
2024/04/18 03:10:29;;;;;;;0.00;0.00;;;;;;;4.50;88.00;100825.53;6431391;22;20004;-75
2024/04/18 03:12:55;;;;;;;0.00;0.00;;;;;;;4.48;87.82;100824.94;6473604;22;19994;-75
2024/04/18 03:15:30;;;;;;;0.10;0.10;;;;;;;4.51;87.60;100818.25;6429515;22;20022;-74
2024/04/18 03:17:56;;;;;;;0.00;0.00;;;;;;;4.35;87.52;100787.06;6351392;22;20002;-75
2024/04/18 03:20:22;;;;;;;0.00;0.00;;;;;;;4.57;87.29;100828.22;6390267;22;20006;-75
2024/04/18 03:22:49;;;;;;;0.00;0.00;;;;;;;4.67;87.17;100828.59;6471827;21;20017;-75
2024/04/18 03:25:24;;;;;;;0.00;0.00;;;;;;;4.70;87.16;100830.88;6435447;22;20002;-77
2024/04/18 03:27:49;;;;;;;0.00;0.00;;;;;;;4.57;86.67;100817.41;6434211;22;19997;-76
2024/04/18 03:30:27;;;;;;;;;;;;;;;;;;;;;
2024/04/18 03:33:08;;;;;;;;;;;;;;;;;;;;;
2024/04/18 03:35:42;;;;;;;0.00;0.00;;;;;;;4.69;86.08;100836.50;6477379;22;20328;-75
2024/04/18 03:38:10;;;;;;;;;;;;;;;4.93;86.03;100875.53;6434665;22;19998;-77
2024/04/18 03:40:36;;;;;;;0.00;0.00;;;;;;;4.60;85.89;100827.81;6393849;22;19922;-76
2024/04/18 03:43:12;;;;;;;0.00;0.00;;;;;;;4.89;85.80;100880.56;6438163;22;20076;-75
2024/04/18 03:45:37;;;;;;;0.10;0.10;;;;;;;4.81;85.58;100882.72;6434268;22;20290;-75
2024/04/18 03:48:03;;;;;;;0.10;0.10;;;;;;;4.66;85.72;100854.00;6389639;22;20011;-75
2024/04/18 03:50:48;;;;;;;0.00;0.00;;;;;;;4.41;85.67;100839.53;6433506;22;20872;-76
2024/04/18 03:53:16;;;;;;;;;;;;;;;4.54;86.10;100889.09;6474037;22;20409;-76
2024/04/18 03:55:46;;;;;;;0.00;0.00;;;;;;;4.41;86.34;100891.00;6431664;22;19922;-77
2024/04/18 03:58:20;;;;;;;0.10;0.10;;;;;;;4.12;86.21;100885.06;6431181;22;20294;-75
2024/04/18 04:00:49;;;;;;;;;;;;;;;3.95;87.08;100907.13;6432020;22;20008;-75
2024/04/18 04:03:15;;;;;;;0.00;0.00;;;;;;;3.47;87.86;100869.50;6430067;22;19922;-74
2024/04/18 04:05:40;;;;;;;0.00;0.00;;;;;;;3.52;88.41;100904.88;6474710;22;20009;-75
2024/04/18 04:08:06;;;;;;;0.00;0.00;;;;;;;3.16;89.16;100887.16;6390202;22;20001;-76
2024/04/18 04:10:31;;;;;;;0.00;0.00;;;;;;;2.89;89.35;100876.31;6431912;22;20006;-76
2024/04/18 04:13:09;;;;;;;0.00;0.00;;;;;;;2.72;89.96;100875.84;6348221;22;20447;-75
2024/04/18 04:15:37;;;;;;;0.10;0.10;;;;;;;2.77;90.41;100910.34;6476310;22;20012;-75
2024/04/18 04:18:05;;;;;;;0.00;0.00;;;;;;;2.77;90.51;100919.28;6431119;22;20002;-74
2024/04/18 04:20:31;;;;;;;0.00;0.00;;;;;;;2.64;91.06;100915.69;6388592;22;20002;-76
2024/04/18 04:23:00;;;;;;;0.00;0.00;;;;;;;2.46;91.29;100903.56;6389725;22;20009;-76
2024/04/18 04:25:25;;;;;;;0.10;0.10;;;;;;;2.25;91.52;100886.44;6431739;22;20001;-76
2024/04/18 04:28:26;;;;;;;;;;;;;;;;;;;;;
2024/04/18 04:30:57;;;;;;;0.00;0.00;;;;;;;2.41;92.22;100933.03;6474882;22;20124;-76
2024/04/18 04:33:22;;;;;;;0.00;0.00;;;;;;;2.37;92.22;100927.19;6430573;22;20029;-76
2024/04/18 04:35:50;;;;;;;0.00;0.00;;;;;;;2.13;92.18;100903.41;6431708;22;20286;-76
2024/04/18 04:38:19;;;;;;;0.00;0.00;;;;;;;1.84;92.66;100871.06;6476773;22;20009;-75
2024/04/18 04:40:44;;;;;;;0.10;0.10;;;;;;;1.87;92.75;100873.38;6432467;22;19997;-75
2024/04/18 04:43:09;;;;;;;0.10;0.10;;;;;;;2.14;92.80;100921.25;6476938;22;20086;-77
2024/04/18 04:45:37;;;;;;;0.00;0.00;;;;;;;2.08;93.01;100917.47;6394084;22;20068;-77
2024/04/18 04:48:03;;;;;;;0.00;0.00;;;;;;;2.11;93.14;100932.44;6431777;22;20002;-77
2024/04/18 04:50:31;;;;;;;0.10;0.10;;;;;;;1.92;93.41;100908.66;6432353;22;20389;-76
2024/04/18 04:53:21;;;;;;;0.00;0.00;;;;;;;1.89;93.57;100919.84;6390737;22;20001;-79
2024/04/18 04:55:50;;;;;;;0.00;0.00;;;;;;;1.86;93.99;100922.94;6432684;22;20379;-77
2024/04/18 04:58:18;;;;;;;0.10;0.10;;;;;;;1.83;94.09;100930.59;6349464;22;20010;-75
2024/04/18 05:00:43;;;;;;;0.10;0.10;;;;;;;1.74;94.27;100911.03;6475771;22;19998;-77
2024/04/18 05:03:09;;;;;;;0.00;0.00;;;;;;;1.79;94.40;100921.22;6348288;22;20826;-76
2024/04/18 05:05:34;;;;;;;0.00;0.00;;;;;;;2.05;94.57;100966.44;6431433;22;20033;-75
2024/04/18 05:08:00;;;;;;;0.00;0.00;;;;;;;1.87;94.76;100943.50;6431113;22;19994;-75
2024/04/18 05:10:26;;;;;;;0.00;0.00;;;;;;;1.88;95.11;100950.56;6431209;22;20013;-76
2024/04/18 05:12:51;;;;;;;0.00;0.00;;;;;;;2.00;95.08;100969.75;6391032;22;20004;-76
2024/04/18 05:15:17;;;;;;;0.00;0.00;;;;;;;1.97;95.26;100963.88;6432086;22;20080;-75
2024/04/18 05:17:42;;;;;;;0.00;0.00;;;;;;;1.84;95.54;100943.88;6432437;22;20017;-75
2024/04/18 05:20:09;;;;;;;0.00;0.00;;;;;;;1.88;95.33;100955.94;6431968;22;19998;-74
2024/04/18 05:22:34;;;;;;;0.00;0.00;;;;;;;1.82;95.90;100945.91;6387995;22;20001;-76
2024/04/18 05:25:05;;;;;;;0.00;0.00;;;;;;;2.10;95.78;100980.16;6478416;22;20009;-75
2024/04/18 05:27:34;;;;;;;0.00;0.00;;;;;;;2.08;96.02;100974.16;6389601;22;19997;-75
2024/04/18 05:32:46;;;;;;;0.00;0.00;;;;;;;2.27;95.99;101007.69;6473869;22;20008;-77
2024/04/18 05:35:12;;;;;;;0.00;0.00;;;;;;;2.14;95.96;100994.13;6392896;22;20002;-75
2024/04/18 05:37:52;;;;;;;0.05;0.05;;;;;;;2.35;96.56;101014.81;6389060;22;20012;-76
2024/04/18 05:40:18;;;;;;;0.10;0.10;;;;;;;2.20;96.14;100982.53;6474541;22;20601;-77
2024/04/18 05:43:10;;;;;;;0.00;0.00;;;;;;;2.21;96.49;100982.31;6430151;22;20029;-76
2024/04/18 05:45:36;;;;;;;0.10;0.10;;;;;;;2.10;96.37;100955.88;6430615;22;20008;-76
2024/04/18 05:48:06;;;;;;;0.00;0.00;;;;;;;2.53;96.26;101028.63;6429992;22;20002;-75
2024/04/18 05:50:35;;;;;;;0.00;0.00;;;;;;;2.40;96.22;101013.19;6389961;22;20007;-75
2024/04/18 05:53:00;;;;;;;0.00;0.00;;;;;;;2.65;96.56;101041.59;6347190;22;20037;-74
2024/04/18 05:55:36;;;;;;;0.00;0.00;;;;;;;2.66;96.31;101043.25;6476745;22;20009;-76
2024/04/18 05:58:02;;;;;;;0.00;0.00;;;;;;;2.59;96.33;101025.13;6432089;22;20001;-75
2024/04/18 06:03:48;;;;;;;0.00;0.00;;;;;;;2.64;96.33;101029.13;6334292;22;20004;-78
2024/04/18 06:06:13;;;;;;;0.00;0.00;;;;;;;2.69;96.19;101026.66;6432810;22;19993;-81
2024/04/18 06:08:51;;;;;;;;;;;;;;;;;;;;;
2024/04/18 06:11:42;;;;;;;;;;;;;;;;;;;;;
2024/04/18 06:39:12;;;;;;;0.00;0.00;;;;;;;3.43;95.40;101011.56;6478708;21;20336;-75
2024/04/18 06:41:38;;;;;;;0.00;0.00;;;;;;;3.74;95.50;101039.91;6436234;22;20001;-75
2024/04/18 06:44:04;;;;;;;0.10;0.10;;;;;;;4.15;95.39;101080.34;6481089;22;20376;-73
2024/04/18 06:49:58;;;;;;;0.10;0.10;;;;;;;4.19;95.08;101050.97;6450600;22;20001;-75
2024/04/18 07:03:11;;;;;;;;;;;;;;;;;;;;;
2024/04/18 09:09:56;;;;;;;;;;;;;;;;;;;;;
2024/04/18 10:22:22;;;;;;;0.00;0.00;;;;;;;42.86;9.44;101141.03;6589978;21;20024;-76
2024/04/18 10:29:30;;;;;;;0.00;0.00;;;;;;;29.62;16.38;101137.50;6334479;22;19996;-76
2024/04/18 10:31:57;;;;;;;0.00;0.00;;;;;;;25.64;19.89;101132.19;6246040;22;20007;-74
2024/04/18 10:39:14;;;;;;;;;;;;;;;;;;;;;
2024/04/18 10:42:43;;;;;;;0.00;0.00;;;;;;;37.18;15.31;101119.09;6112974;23;20017;-75
2024/04/18 10:48:43;;;;;;;0.00;0.00;;;;;;;42.41;10.11;101139.56;6011902;23;20060;-74
2024/04/18 10:58:35;;;;;;;0.00;0.00;;;;;;;40.30;10.98;101137.84;5986074;23;20448;-75
2024/04/18 11:09:19;;;;;;;0.00;0.00;;;;;;;47.82;8.88;101158.25;6041638;23;20106;-76
2024/04/18 11:12:41;;;;;;;0.00;0.00;;;;;;;48.69;8.61;101150.53;5876598;23;20009;-75
2024/04/18 11:15:07;;;;;;;0.00;0.00;;;;;;;47.43;7.50;101147.03;5962120;23;19998;-75
2024/04/18 11:18:05;;;;;;;;;;;;;;;;;;;;;
2024/04/18 11:20:34;;;;;;;0.00;0.00;;;;;;;46.70;7.08;101136.03;6537516;21;19992;-76
2024/04/18 11:23:26;;;;;;;0.00;0.00;;;;;;;47.00;8.14;101133.84;6578904;21;20024;-75
2024/04/18 11:25:54;;;;;;;0.00;0.00;;;;;;;47.27;8.50;101114.47;6504542;21;19999;-75
2024/04/18 11:29:00;;;;;;;0.00;0.00;;;;;;;47.60;8.74;101138.53;6534833;21;20011;-75
2024/04/18 11:31:30;;;;;;;0.00;0.00;;;;;;;48.01;8.06;101112.34;6497094;21;20020;-75
2024/04/18 11:34:07;;;;;;;;;;;;;;;;;;;;;
2024/04/18 11:36:37;;;;;;;0.00;0.00;;;;;;;39.21;11.48;101136.38;6537603;21;20281;-75
2024/04/18 11:39:03;;;;;;;0.00;0.00;;;;;;;39.91;11.72;101091.16;6576511;21;20403;-75
2024/04/18 11:41:32;;;;;;;0.00;0.00;;;;;;;38.71;12.13;101090.69;6577325;21;20015;-76
2024/04/18 11:43:57;;;;;;;0.00;0.00;;;;;;;36.06;12.95;101097.94;6527615;21;20007;-76
2024/04/18 11:46:55;;;;;;;0.00;0.00;;;;;;;32.80;14.37;101096.56;6531557;21;20613;-74
2024/04/18 11:50:01;;;;;;;0.00;0.00;;;;;;;34.48;14.15;101100.22;6513470;21;20000;-75
2024/04/18 11:52:34;;;;;;;0.00;0.00;;;;;;;39.27;11.86;101097.44;6539607;21;19996;-74
2024/04/18 11:55:51;;;;;;;0.00;0.00;;;;;;;42.70;10.85;101093.22;6532500;21;19996;-76
2024/04/18 11:58:19;;;;;;;0.00;0.00;;;;;;;45.21;9.80;101102.09;6545526;21;20366;-76
2024/04/18 12:04:34;;;;;;;0.00;0.00;;;;;;;48.46;7.44;101111.94;6413321;21;20003;-77
2024/04/18 12:07:06;;;;;;;0.00;0.00;;;;;;;48.55;6.97;101080.59;6490613;21;20004;-78
2024/04/18 12:10:21;;;;;;;0.00;0.00;;;;;;;47.54;6.12;101086.34;6533437;21;20012;-77
2024/04/18 12:13:00;;;;;;;0.00;0.00;;;;;;;44.38;8.48;101083.22;6493751;21;20013;-77
2024/04/18 12:40:25;;;;;;;0.00;0.00;;;;;;;47.61;7.40;101056.91;6421632;21;20005;-78
2024/04/18 12:50:40;;;;;;;0.00;0.00;;;;;;;48.90;7.42;101040.97;6130659;23;19986;-76
2024/04/18 13:11:32;;;;;;;0.00;0.00;;;;;;;39.33;9.50;101038.44;5799210;24;20000;-78
2024/04/18 13:15:03;;;;;;;;;;;;;;;;;;;;;
2024/04/18 13:17:32;;;;;;;0.00;0.00;;;;;;;39.85;9.64;100978.47;6001091;23;20011;-75
2024/04/18 13:24:40;;;;;;;;;;;;;;;;;;;;;
2024/04/18 13:27:09;;;;;;;0.00;0.00;;;;;;;32.78;12.80;100980.06;6177243;22;20055;-77
2024/04/18 13:29:35;;;;;;;0.00;0.00;;;;;;;31.43;13.35;101000.72;6277230;22;20357;-75
2024/04/18 13:35:45;;;;;;;0.00;0.00;;;;;;;33.84;12.07;100971.66;6496156;21;20008;-76
2024/04/18 13:38:33;;;;;;;0.00;0.00;;;;;;;32.84;12.78;101018.91;6536984;21;19997;-76
2024/04/18 13:41:04;;;;;;;0.00;0.00;;;;;;;32.46;12.86;100973.19;6468340;21;20012;-77
2024/04/18 13:43:50;;;;;;;0.00;0.00;;;;;;;29.51;15.77;101024.66;6533480;21;20030;-76
2024/04/18 13:46:19;;;;;;;0.00;0.00;;;;;;;27.15;17.73;100970.91;6494386;21;20361;-76
2024/04/18 13:48:54;;;;;;;;;;;;;;;;;;;;;
2024/04/18 13:52:06;;;;;;;;;;;;;;;;;;;;;
2024/04/18 14:19:57;;;;;;;0.00;0.00;;;;;;;31.36;15.45;101000.69;6277611;22;20073;-77
2024/04/18 14:43:59;;;;;;;0.00;0.00;;;;;;;27.34;17.69;100933.66;6319013;22;20053;-77
2024/04/18 14:47:16;;;;;;;0.00;0.00;;;;;;;27.50;18.73;100972.09;6177208;23;19998;-76
2024/04/18 15:17:18;;;;;;;;;;;;;;;;;;;;;
2024/04/18 15:19:44;;;;;;;0.00;0.00;;;;;;;24.81;22.52;100928.13;5983134;23;20020;-76
2024/04/18 15:22:34;;;;;;;0.00;0.00;;;;;;;23.92;23.94;100942.66;6045596;23;20000;-75
2024/04/18 15:25:17;;;;;;;;;;;;;;;;;;;;;
2024/04/18 15:27:43;;;;;;;0.00;0.00;;;;;;;23.74;24.10;100950.34;6133736;23;20540;-74
2024/04/18 15:30:12;;;;;;;0.00;0.00;;;;;;;23.29;25.14;100929.56;6193023;22;19996;-76
2024/04/18 15:32:40;;;;;;;0.00;0.00;;;;;;;23.65;25.85;100953.22;6330633;22;20070;-75
2024/04/18 15:38:35;;;;;;;0.00;0.00;;;;;;;24.57;23.56;100928.91;6579911;21;20004;-76
2024/04/18 15:41:23;;;;;;;0.00;0.00;;;;;;;25.39;22.63;100941.06;6531668;21;20019;-76
2024/04/18 15:44:33;;;;;;;0.00;0.00;;;;;;;25.18;22.00;100914.03;6534211;21;19988;-75
2024/04/18 15:47:09;;;;;;;;;;;;;;;;;;;;;
2024/04/18 15:50:22;;;;;;;;;;;;;;;;;;;;;
2024/04/18 15:53:22;;;;;;;0.00;0.00;;;;;;;25.25;22.88;100919.84;6541032;21;20011;-75
2024/04/18 15:56:27;;;;;;;;;;;;;;;;;;;;;
2024/04/18 15:59:21;;;;;;;;;;;;;;;;;;;;;
2024/04/18 16:05:39;;;;;;;0.00;0.00;;;;;;;25.12;22.54;100893.09;6334955;22;20473;-75
2024/04/18 16:08:43;;;;;;;0.00;0.00;;;;;;;23.46;24.41;100898.72;6186544;22;20067;-76
2024/04/18 16:11:09;;;;;;;0.00;0.00;;;;;;;22.73;25.17;100908.25;6374329;22;20009;-76
2024/04/18 16:13:43;;;;;;;0.00;0.00;;;;;;;22.92;24.98;100859.59;6379476;22;19999;-76
2024/04/18 16:23:05;;;;;;;;;;;;;;;;;;;;;
2024/04/18 16:25:47;;;;;;;0.00;0.00;;;;;;;22.69;26.57;100918.44;6190119;23;20009;-77
2024/04/18 16:28:42;;;;;;;0.00;0.00;;;;;;;21.51;27.54;100894.72;6225175;23;19993;-76
2024/04/18 16:31:34;;;;;;;0.00;0.00;;;;;;;20.48;29.65;100895.84;6209686;23;20444;-76
2024/04/18 16:34:10;;;;;;;0.00;0.00;;;;;;;19.40;31.23;100879.25;6226315;22;20001;-76
2024/04/18 16:36:45;;;;;;;0.00;0.00;;;;;;;18.87;32.33;100889.06;6242076;22;20150;-76
2024/04/18 16:39:23;;;;;;;0.00;0.00;;;;;;;18.41;33.23;100862.31;6460296;21;20007;-76
2024/04/18 16:41:54;;;;;;;0.00;0.00;;;;;;;18.36;33.71;100909.50;6579346;21;20015;-75
2024/04/18 16:44:23;;;;;;;0.00;0.00;;;;;;;17.81;34.87;100911.00;6531843;21;20004;-73
2024/04/18 16:46:48;;;;;;;0.00;0.00;;;;;;;17.31;35.82;100916.25;6534770;21;19993;-78
2024/04/18 16:49:23;;;;;;;0.00;0.00;;;;;;;16.70;36.48;100888.31;6528377;21;20518;-77
2024/04/18 16:51:48;;;;;;;0.00;0.00;;;;;;;16.51;37.11;100913.13;6492418;21;20008;-76
2024/04/18 16:57:57;;;;;;;;;;;;;;;;;;;;;
2024/04/18 17:03:43;;;;;;;;;;;;;;;;;;;;;
2024/04/18 17:06:24;;;;;;;0.00;0.00;;;;;;;15.07;38.13;100920.69;6322704;22;20004;-77
2024/04/18 17:09:00;;;;;;;0.00;0.00;;;;;;;14.95;38.98;100889.91;6239453;22;20011;-75
2024/04/18 17:11:46;;;;;;;0.00;0.00;;;;;;;15.17;37.13;100928.06;6324884;22;20326;-76
2024/04/18 17:17:47;;;;;;;0.00;0.00;;;;;;;15.72;36.33;100908.66;6271556;22;20408;-77
2024/04/18 17:20:28;;;;;;;0.03;0.03;;;;;;;15.52;34.59;100871.88;6275618;22;20021;-76
2024/04/18 17:23:50;;;;;;;;;;;;;;;;;;;;;
2024/04/18 17:29:58;;;;;;;0.00;0.00;;;;;;;14.45;34.70;100920.09;6131415;23;20089;-77
2024/04/18 17:36:20;;;;;;;;;;;;;;;;;;;;;
2024/04/18 17:45:25;;;;;;;0.00;0.00;;;;;;;13.74;36.85;100919.94;6219918;22;19996;-76
2024/04/18 17:48:56;;;;;;;;;;;;;;;;;;;;;
2024/04/18 17:52:20;;;;;;;;;;;;;;;;;;;;;
2024/04/18 18:16:45;;;;;;;0.10;0.10;;;;;;;13.49;39.35;100914.44;5960639;23;20003;-78
2024/04/18 18:19:28;;;;;;;0.00;0.00;;;;;;;12.97;39.81;100875.06;6006382;23;19999;-78
2024/04/18 18:21:54;;;;;;;0.00;0.00;;;;;;;12.83;39.95;100904.94;6120493;23;19994;-75
2024/04/18 18:24:20;;;;;;;0.00;0.00;;;;;;;12.47;40.37;100882.84;6284624;22;20013;-76
2024/04/18 18:26:45;;;;;;;0.00;0.00;;;;;;;12.35;41.30;100905.00;6443830;21;19981;-77
2024/04/18 18:29:10;;;;;;;0.00;0.00;;;;;;;11.96;42.15;100878.75;6538852;21;20006;-75
2024/04/18 18:31:36;;;;;;;0.00;0.00;;;;;;;11.88;41.97;100891.00;6495828;21;19992;-77
2024/04/18 18:34:38;;;;;;;;;;;;;;;;;;;;;
2024/04/18 18:37:36;;;;;;;;;;;;;;;;;;;;;
2024/04/18 18:40:04;;;;;;;0.00;0.00;;;;;;;11.22;43.36;100849.38;6584249;21;20016;-76
2024/04/18 18:42:30;;;;;;;0.10;0.10;;;;;;;11.33;43.66;100886.69;6536441;21;20004;-77
2024/04/18 18:44:55;;;;;;;0.00;0.00;;;;;;;11.21;44.04;100872.34;6453946;21;19992;-78
2024/04/18 18:47:23;;;;;;;0.00;0.00;;;;;;;11.22;43.54;100904.94;6534513;21;20450;-77
2024/04/18 18:49:56;;;;;;;0.00;0.00;;;;;;;11.05;44.30;100890.53;6495537;21;20007;-77
2024/04/18 18:52:22;;;;;;;0.00;0.00;;;;;;;10.99;44.73;100893.22;6494344;21;20448;-76
2024/04/18 18:55:06;;;;;;;0.00;0.00;;;;;;;10.77;45.09;100863.16;6491688;21;19992;-77
2024/04/18 18:57:36;;;;;;;0.00;0.00;;;;;;;10.71;44.82;100863.38;6582676;21;20000;-76
2024/04/18 19:00:03;;;;;;;0.00;0.00;;;;;;;10.77;45.62;100884.22;6492534;21;20000;-77
2024/04/18 19:02:31;;;;;;;0.00;0.00;;;;;;;10.81;46.29;100890.84;6449412;21;19993;-78
2024/04/18 19:05:00;;;;;;;0.00;0.00;;;;;;;10.76;46.48;100888.03;6534021;21;20399;-75
2024/04/18 19:14:13;;;;;;;0.00;0.00;;;;;;;10.73;48.33;100902.22;6318598;22;20273;-78
2024/04/18 19:16:38;;;;;;;0.00;0.00;;;;;;;10.58;49.29;100890.00;6245103;22;20000;-78
2024/04/18 19:19:04;;;;;;;0.05;0.05;;;;;;;10.54;49.25;100886.16;6401442;21;20004;-76
2024/04/18 19:21:29;;;;;;;0.00;0.00;;;;;;;10.50;49.77;100895.09;6537557;21;19992;-78
2024/04/18 19:23:57;;;;;;;0.00;0.00;;;;;;;10.64;49.97;100910.03;6581717;21;19999;-76
2024/04/18 19:26:29;;;;;;;0.00;0.00;;;;;;;10.55;49.96;100904.19;6536170;21;20326;-76
2024/04/18 19:29:07;;;;;;;0.00;0.00;;;;;;;10.55;50.50;100904.19;6537893;21;20338;-76
2024/04/18 19:32:01;;;;;;;0.10;0.10;;;;;;;10.60;51.40;100912.47;6537014;21;20000;-79
2024/04/18 19:34:29;;;;;;;0.00;0.00;;;;;;;10.34;52.04;100873.03;6503545;21;19992;-77
2024/04/18 19:37:18;;;;;;;0.00;0.00;;;;;;;10.43;52.09;100895.28;6563584;21;20006;-79
2024/04/18 19:40:09;;;;;;;0.00;0.00;;;;;;;10.46;53.27;100908.44;6512255;21;19999;-78
2024/04/18 19:43:24;;;;;;;0.00;0.00;;;;;;;10.04;53.72;100846.91;6374196;22;20010;-77
2024/04/18 19:50:24;;;;;;;0.00;0.00;;;;;;;9.99;55.79;100851.47;6325347;22;20398;-77
2024/04/18 19:57:26;;;;;;;0.00;0.00;;;;;;;10.39;58.91;100913.28;6014322;23;20304;-77
2024/04/18 19:59:52;;;;;;;0.10;0.10;;;;;;;10.49;58.91;100910.69;6014930;23;20037;-76
2024/04/18 20:02:18;;;;;;;0.10;0.10;;;;;;;10.26;58.53;100889.84;6289150;21;20008;-76
2024/04/18 20:04:43;;;;;;;0.00;0.00;;;;;;;10.28;58.35;100893.97;6580896;21;20003;-77
2024/04/18 20:07:09;;;;;;;0.00;0.00;;;;;;;10.06;59.14;100868.50;6530222;21;19996;-77
2024/04/18 20:09:47;;;;;;;;;;;;;;;;;;;;;
2024/04/18 20:12:21;;;;;;;0.00;0.00;;;;;;;10.25;59.73;100912.78;6575635;21;19993;-78
2024/04/18 20:14:47;;;;;;;0.00;0.00;;;;;;;10.19;60.11;100906.44;6535478;21;20073;-74
2024/04/18 20:17:42;;;;;;;0.00;0.00;;;;;;;9.98;60.74;100866.22;6531559;21;19997;-78
2024/04/18 20:20:47;;;;;;;;;;;;;;;;;;;;;
2024/04/18 20:23:17;;;;;;;0.00;0.00;;;;;;;9.98;60.99;100882.63;6575312;21;19993;-74
2024/04/18 20:25:46;;;;;;;0.10;0.10;;;;;;;9.70;61.50;100840.69;6533679;21;20066;-75
2024/04/18 20:28:20;;;;;;;0.00;0.00;;;;;;;9.81;61.94;100869.78;6535248;21;20304;-75
2024/04/18 20:30:46;;;;;;;0.00;0.00;;;;;;;9.69;62.28;100841.75;6532760;21;20000;-75
2024/04/18 20:33:11;;;;;;;0.00;0.00;;;;;;;9.98;62.47;100890.81;6535068;21;20011;-77
2024/04/18 20:35:36;;;;;;;0.10;0.10;;;;;;;9.87;62.99;100873.44;6527169;21;20011;-75
2024/04/18 20:38:02;;;;;;;0.00;0.00;;;;;;;9.88;63.63;100859.50;6523731;22;20008;-75
2024/04/18 20:40:29;;;;;;;0.00;0.00;;;;;;;9.95;64.66;100868.34;6527676;22;20001;-75
2024/04/18 20:42:54;;;;;;;0.08;0.08;;;;;;;9.85;64.96;100856.47;6524073;22;20514;-75
2024/04/18 20:45:19;;;;;;;0.00;0.00;;;;;;;9.91;65.78;100859.00;6483762;22;19993;-76
2024/04/18 20:47:50;;;;;;;0.00;0.00;;;;;;;10.05;66.20;100873.16;6481370;22;19993;-75
2024/04/18 20:50:21;;;;;;;0.10;0.10;;;;;;;10.04;66.18;100885.16;6527282;22;20415;-76
2024/04/18 20:52:56;;;;;;;;;;;;;;;;;;;;;
2024/04/18 20:55:30;;;;;;;0.00;0.00;;;;;;;9.85;66.46;100840.91;6530081;22;20400;-74
2024/04/18 20:57:57;;;;;;;0.10;0.10;;;;;;;9.86;66.62;100839.81;6486472;22;20404;-74
2024/04/18 21:00:23;;;;;;;0.00;0.00;;;;;;;10.06;66.94;100869.34;6486009;22;20016;-76
2024/04/18 21:02:48;;;;;;;0.00;0.00;;;;;;;10.02;67.27;100861.91;6528193;22;19997;-77
2024/04/18 21:05:19;;;;;;;0.00;0.00;;;;;;;9.92;67.53;100849.75;6486846;22;20016;-78
2024/04/18 21:07:52;;;;;;;0.10;0.10;;;;;;;9.88;67.50;100842.31;6530743;22;19997;-75
2024/04/18 21:10:18;;;;;;;0.00;0.00;;;;;;;9.75;67.98;100813.44;6480692;22;20007;-75
2024/04/18 21:12:52;;;;;;;0.00;0.00;;;;;;;9.68;68.52;100810.06;6526434;22;19993;-75
2024/04/18 21:15:18;;;;;;;0.10;0.10;;;;;;;9.81;68.93;100828.81;6524628;22;20005;-75